Kelsey, Minnesota
Current Conditions -  °F | °C
As of 9:11 PM on Saturday 20 Dec 2014 (Local Time) from KEVM Reporting Station
Haze Haze  
Wind Chill: 21°   Ceiling: 700
Heat Index: 30°   Visibility: 5mi
Dew Point: 28°   Wind: 12mph
Humidity: 93%   Direction: 210°SSW
Pressure: 30.03"   Gusts: 17mph
Location:  47.1793°N, 92.3523°W
Report Text: KEVM 210311Z AUTO 21010G15KT 5SM BR OVC007 M01/M02 A3003 RMK AO2
Loading
Personal Weather Stations






























Interactive Weather Map New forecast layout! Learn more

10-Day Weather Forecast

Advertisements
Track Severe Weather on mobile